sensor_id;sensor_type;location;lat;lon;timestamp;pressure;altitude;pressure_sealevel;temperature;humidity
16544;BME280;8384;47.996;7.786;2024-02-26T00:01:40;96824.09;;;7.36;87.71
16544;BME280;8384;47.996;7.786;2024-02-26T00:04:05;96819.19;;;7.38;88.22
16544;BME280;8384;47.996;7.786;2024-02-26T00:06:31;96792.22;;;7.17;89.50
16544;BME280;8384;47.996;7.786;2024-02-26T00:08:56;96839.47;;;7.22;94.26
16544;BME280;8384;47.996;7.786;2024-02-26T00:11:22;96807.66;;;6.93;92.71
16544;BME280;8384;47.996;7.786;2024-02-26T00:13:47;96827.06;;;7.10;95.58
16544;BME280;8384;47.996;7.786;2024-02-26T00:16:12;96823.03;;;7.32;98.52
16544;BME280;8384;47.996;7.786;2024-02-26T00:18:38;96818.88;;;7.15;99.96
16544;BME280;8384;47.996;7.786;2024-02-26T00:21:03;96813.66;;;7.19;99.71
16544;BME280;8384;47.996;7.786;2024-02-26T00:23:29;96782.09;;;6.99;100.00
16544;BME280;8384;47.996;7.786;2024-02-26T00:25:54;96802.34;;;7.12;100.00
16544;BME280;8384;47.996;7.786;2024-02-26T00:28:20;96793.47;;;7.01;100.00
16544;BME280;8384;47.996;7.786;2024-02-26T00:30:46;96763.78;;;6.80;99.81
16544;BME280;8384;47.996;7.786;2024-02-26T00:33:12;96799.31;;;7.13;99.29
16544;BME280;8384;47.996;7.786;2024-02-26T00:35:37;96796.00;;;7.22;98.34
16544;BME280;8384;47.996;7.786;2024-02-26T00:38:02;96803.00;;;6.98;100.00
16544;BME280;8384;47.996;7.786;2024-02-26T00:40:28;96734.78;;;6.06;100.00
16544;BME280;8384;47.996;7.786;2024-02-26T00:42:54;96807.31;;;6.70;100.00
16544;BME280;8384;47.996;7.786;2024-02-26T00:45:19;96806.53;;;6.64;100.00
16544;BME280;8384;47.996;7.786;2024-02-26T00:47:44;96805.38;;;6.75;100.00
16544;BME280;8384;47.996;7.786;2024-02-26T00:50:12;96815.16;;;6.71;100.00
16544;BME280;8384;47.996;7.786;2024-02-26T00:52:37;96810.41;;;6.58;100.00
16544;BME280;8384;47.996;7.786;2024-02-26T00:55:03;96819.84;;;6.66;100.00
16544;BME280;8384;47.996;7.786;2024-02-26T00:57:28;96810.22;;;6.44;100.00
16544;BME280;8384;47.996;7.786;2024-02-26T00:59:54;96817.72;;;6.57;100.00
16544;BME280;8384;47.996;7.786;2024-02-26T01:02:21;96817.13;;;6.66;100.00
16544;BME280;8384;47.996;7.786;2024-02-26T01:04:47;96802.97;;;6.69;100.00
16544;BME280;8384;47.996;7.786;2024-02-26T01:07:12;96805.25;;;6.56;100.00
16544;BME280;8384;47.996;7.786;2024-02-26T01:09:37;96808.78;;;6.57;100.00
16544;BME280;8384;47.996;7.786;2024-02-26T01:12:03;96790.34;;;6.83;100.00
16544;BME280;8384;47.996;7.786;2024-02-26T01:14:28;96799.97;;;6.70;100.00
16544;BME280;8384;47.996;7.786;2024-02-26T01:16:53;96800.91;;;6.55;100.00
16544;BME280;8384;47.996;7.786;2024-02-26T01:19:19;96787.34;;;6.55;100.00
16544;BME280;8384;47.996;7.786;2024-02-26T01:21:44;96777.81;;;6.58;100.00
16544;BME280;8384;47.996;7.786;2024-02-26T01:24:09;96780.56;;;6.53;100.00
16544;BME280;8384;47.996;7.786;2024-02-26T01:26:34;96687.63;;;5.97;100.00
16544;BME280;8384;47.996;7.786;2024-02-26T01:29:00;96781.69;;;6.47;100.00
16544;BME280;8384;47.996;7.786;2024-02-26T01:31:25;96780.56;;;6.53;100.00
16544;BME280;8384;47.996;7.786;2024-02-26T01:33:50;96781.69;;;6.47;100.00
16544;BME280;8384;47.996;7.786;2024-02-26T01:36:16;96779.75;;;6.52;100.00
16544;BME280;8384;47.996;7.786;2024-02-26T01:38:41;96779.28;;;6.45;100.00
16544;BME280;8384;47.996;7.786;2024-02-26T01:41:06;96776.84;;;6.43;100.00
16544;BME280;8384;47.996;7.786;2024-02-26T01:43:32;96771.25;;;6.64;100.00
16544;BME280;8384;47.996;7.786;2024-02-26T01:45:58;96777.97;;;6.72;100.00
16544;BME280;8384;47.996;7.786;2024-02-26T01:48:23;96782.59;;;6.71;100.00
16544;BME280;8384;47.996;7.786;2024-02-26T01:50:48;96765.47;;;6.36;100.00
16544;BME280;8384;47.996;7.786;2024-02-26T01:53:15;96774.63;;;6.80;100.00
16544;BME280;8384;47.996;7.786;2024-02-26T01:55:41;96777.19;;;6.66;100.00
16544;BME280;8384;47.996;7.786;2024-02-26T01:58:07;96763.88;;;6.70;100.00
16544;BME280;8384;47.996;7.786;2024-02-26T02:00:32;96767.13;;;6.72;100.00
16544;BME280;8384;47.996;7.786;2024-02-26T02:02:57;96764.75;;;6.95;100.00
16544;BME280;8384;47.996;7.786;2024-02-26T02:05:23;96663.66;;;6.14;100.00
16544;BME280;8384;47.996;7.786;2024-02-26T02:07:49;96762.97;;;6.80;100.00
16544;BME280;8384;47.996;7.786;2024-02-26T02:10:16;96749.09;;;6.81;100.00
16544;BME280;8384;47.996;7.786;2024-02-26T02:12:43;96752.81;;;6.90;100.00
16544;BME280;8384;47.996;7.786;2024-02-26T02:15:08;96756.25;;;6.72;100.00
16544;BME280;8384;47.996;7.786;2024-02-26T02:17:34;96768.31;;;6.55;100.00
16544;BME280;8384;47.996;7.786;2024-02-26T02:19:59;96750.81;;;6.37;100.00
16544;BME280;8384;47.996;7.786;2024-02-26T02:22:24;96760.53;;;6.78;100.00
16544;BME280;8384;47.996;7.786;2024-02-26T02:24:51;96755.19;;;6.97;99.86
16544;BME280;8384;47.996;7.786;2024-02-26T02:27:17;96758.75;;;7.22;97.30
16544;BME280;8384;47.996;7.786;2024-02-26T02:29:42;96758.75;;;7.22;98.35
16544;BME280;8384;47.996;7.786;2024-02-26T02:32:08;96754.34;;;7.26;99.15
16544;BME280;8384;47.996;7.786;2024-02-26T02:34:34;96748.88;;;7.31;100.00
16544;BME280;8384;47.996;7.786;2024-02-26T02:36:59;96749.09;;;7.35;97.63
16544;BME280;8384;47.996;7.786;2024-02-26T02:39:25;96749.09;;;7.35;99.72
16544;BME280;8384;47.996;7.786;2024-02-26T02:41:50;96743.25;;;7.23;100.00
16544;BME280;8384;47.996;7.786;2024-02-26T02:44:15;96751.16;;;7.19;99.96
16544;BME280;8384;47.996;7.786;2024-02-26T02:46:40;96755.22;;;7.22;100.00
16544;BME280;8384;47.996;7.786;2024-02-26T02:49:10;96759.31;;;7.19;100.00
16544;BME280;8384;47.996;7.786;2024-02-26T02:51:36;96752.44;;;7.02;100.00
16544;BME280;8384;47.996;7.786;2024-02-26T02:54:01;96759.66;;;7.12;100.00
16544;BME280;8384;47.996;7.786;2024-02-26T02:56:26;96771.88;;;7.15;100.00
16544;BME280;8384;47.996;7.786;2024-02-26T02:58:51;96774.22;;;6.97;100.00
16544;BME280;8384;47.996;7.786;2024-02-26T03:01:17;96771.09;;;6.85;100.00
16544;BME280;8384;47.996;7.786;2024-02-26T03:03:42;96780.16;;;6.70;100.00
16544;BME280;8384;47.996;7.786;2024-02-26T03:06:07;96791.34;;;6.63;100.00
16544;BME280;8384;47.996;7.786;2024-02-26T03:08:32;96795.25;;;6.52;100.00
16544;BME280;8384;47.996;7.786;2024-02-26T03:10:58;96790.38;;;6.49;100.00
16544;BME280;8384;47.996;7.786;2024-02-26T03:13:24;96802.81;;;6.55;100.00
16544;BME280;8384;47.996;7.786;2024-02-26T03:15:49;96804.66;;;6.25;100.00
16544;BME280;8384;47.996;7.786;2024-02-26T03:18:14;96806.09;;;6.12;100.00
16544;BME280;8384;47.996;7.786;2024-02-26T03:23:07;96805.88;;;6.48;100.00
16544;BME280;8384;47.996;7.786;2024-02-26T03:25:34;96808.34;;;6.39;100.00
16544;BME280;8384;47.996;7.786;2024-02-26T03:28:00;96809.72;;;6.37;100.00
16544;BME280;8384;47.996;7.786;2024-02-26T03:30:25;96797.53;;;6.34;100.00
16544;BME280;8384;47.996;7.786;2024-02-26T03:32:50;96803.03;;;6.24;100.00
16544;BME280;8384;47.996;7.786;2024-02-26T03:35:16;96777.66;;;6.04;100.00
16544;BME280;8384;47.996;7.786;2024-02-26T03:37:41;96824.06;;;6.42;100.00
16544;BME280;8384;47.996;7.786;2024-02-26T03:40:07;96821.31;;;6.48;100.00
16544;BME280;8384;47.996;7.786;2024-02-26T03:42:32;96823.75;;;6.49;100.00
16544;BME280;8384;47.996;7.786;2024-02-26T03:44:57;96813.53;;;6.36;100.00
16544;BME280;8384;47.996;7.786;2024-02-26T03:47:23;96826.50;;;6.44;100.00
16544;BME280;8384;47.996;7.786;2024-02-26T03:49:48;96816.28;;;6.30;100.00
16544;BME280;8384;47.996;7.786;2024-02-26T03:52:13;96807.13;;;6.21;100.00
16544;BME280;8384;47.996;7.786;2024-02-26T03:54:40;96787.88;;;6.18;100.00
16544;BME280;8384;47.996;7.786;2024-02-26T03:57:05;96829.06;;;6.65;100.00
16544;BME280;8384;47.996;7.786;2024-02-26T03:59:30;96835.09;;;6.56;100.00
16544;BME280;8384;47.996;7.786;2024-02-26T04:01:55;96830.66;;;6.71;100.00
16544;BME280;8384;47.996;7.786;2024-02-26T04:04:21;96810.25;;;6.39;100.00
16544;BME280;8384;47.996;7.786;2024-02-26T04:06:46;96822.22;;;6.33;100.00
16544;BME280;8384;47.996;7.786;2024-02-26T04:09:14;96832.28;;;6.32;100.00
16544;BME280;8384;47.996;7.786;2024-02-26T04:11:39;96821.00;;;6.09;100.00
16544;BME280;8384;47.996;7.786;2024-02-26T04:14:05;96808.59;;;5.93;100.00
16544;BME280;8384;47.996;7.786;2024-02-26T04:16:33;96839.56;;;5.81;100.00
16544;BME280;8384;47.996;7.786;2024-02-26T04:18:58;96812.50;;;5.66;100.00
16544;BME280;8384;47.996;7.786;2024-02-26T04:21:24;96838.72;;;5.91;100.00
16544;BME280;8384;47.996;7.786;2024-02-26T04:23:49;96840.91;;;5.84;100.00
16544;BME280;8384;47.996;7.786;2024-02-26T04:26:14;96817.94;;;5.61;100.00
16544;BME280;8384;47.996;7.786;2024-02-26T04:28:39;96846.03;;;5.85;100.00
16544;BME280;8384;47.996;7.786;2024-02-26T04:31:05;96824.94;;;5.77;100.00
16544;BME280;8384;47.996;7.786;2024-02-26T04:33:30;96844.38;;;6.00;100.00
16544;BME280;8384;47.996;7.786;2024-02-26T04:35:55;96827.31;;;5.94;100.00
16544;BME280;8384;47.996;7.786;2024-02-26T04:38:20;96837.25;;;6.14;100.00
16544;BME280;8384;47.996;7.786;2024-02-26T04:40:47;96821.84;;;5.99;100.00
16544;BME280;8384;47.996;7.786;2024-02-26T04:43:12;96819.44;;;6.03;100.00
16544;BME280;8384;47.996;7.786;2024-02-26T04:45:38;96832.34;;;6.17;100.00
16544;BME280;8384;47.996;7.786;2024-02-26T04:48:03;96838.88;;;6.15;100.00
16544;BME280;8384;47.996;7.786;2024-02-26T04:50:28;96831.06;;;5.98;100.00
16544;BME280;8384;47.996;7.786;2024-02-26T04:52:54;96787.31;;;5.65;100.00
16544;BME280;8384;47.996;7.786;2024-02-26T04:55:19;96841.34;;;6.12;100.00
16544;BME280;8384;47.996;7.786;2024-02-26T04:57:44;96822.91;;;6.14;100.00
16544;BME280;8384;47.996;7.786;2024-02-26T05:00:10;96831.84;;;6.09;100.00
16544;BME280;8384;47.996;7.786;2024-02-26T05:02:36;96845.88;;;6.27;100.00
16544;BME280;8384;47.996;7.786;2024-02-26T05:05:05;96832.41;;;6.51;100.00
16544;BME280;8384;47.996;7.786;2024-02-26T05:07:30;96795.41;;;6.31;100.00
16544;BME280;8384;47.996;7.786;2024-02-26T05:09:55;96806.16;;;6.41;100.00
16544;BME280;8384;47.996;7.786;2024-02-26T05:12:21;96793.22;;;6.33;100.00
16544;BME280;8384;47.996;7.786;2024-02-26T05:14:46;96830.53;;;6.52;100.00
16544;BME280;8384;47.996;7.786;2024-02-26T05:17:11;96826.19;;;6.51;100.00
16544;BME280;8384;47.996;7.786;2024-02-26T05:19:36;96824.69;;;6.34;100.00
16544;BME280;8384;47.996;7.786;2024-02-26T05:22:02;96835.78;;;6.38;100.00
16544;BME280;8384;47.996;7.786;2024-02-26T05:24:27;96815.22;;;6.26;100.00
16544;BME280;8384;47.996;7.786;2024-02-26T05:26:53;96798.16;;;6.21;100.00
16544;BME280;8384;47.996;7.786;2024-02-26T05:29:19;96816.75;;;6.43;100.00
16544;BME280;8384;47.996;7.786;2024-02-26T05:31:44;96814.59;;;6.40;100.00
16544;BME280;8384;47.996;7.786;2024-02-26T05:34:10;96799.06;;;6.06;100.00
16544;BME280;8384;47.996;7.786;2024-02-26T05:36:35;96785.97;;;6.18;100.00
16544;BME280;8384;47.996;7.786;2024-02-26T05:39:01;96805.41;;;6.30;100.00
16544;BME280;8384;47.996;7.786;2024-02-26T05:41:26;96805.91;;;6.38;100.00
16544;BME280;8384;47.996;7.786;2024-02-26T05:43:52;96812.16;;;6.38;100.00
16544;BME280;8384;47.996;7.786;2024-02-26T05:46:19;96769.75;;;6.08;100.00
16544;BME280;8384;47.996;7.786;2024-02-26T05:48:46;96802.97;;;6.34;100.00
16544;BME280;8384;47.996;7.786;2024-02-26T05:51:11;96801.91;;;6.30;100.00
16544;BME280;8384;47.996;7.786;2024-02-26T05:53:37;96801.94;;;6.25;100.00
16544;BME280;8384;47.996;7.786;2024-02-26T05:56:02;96800.34;;;6.19;100.00
16544;BME280;8384;47.996;7.786;2024-02-26T05:58:28;96815.22;;;6.26;100.00
16544;BME280;8384;47.996;7.786;2024-02-26T06:00:54;96810.06;;;6.30;100.00
16544;BME280;8384;47.996;7.786;2024-02-26T06:03:19;96805.88;;;6.48;100.00
16544;BME280;8384;47.996;7.786;2024-02-26T06:05:46;96811.22;;;6.53;100.00
16544;BME280;8384;47.996;7.786;2024-02-26T06:08:11;96811.75;;;6.55;100.00
16544;BME280;8384;47.996;7.786;2024-02-26T06:10:36;96819.13;;;6.50;100.00
16544;BME280;8384;47.996;7.786;2024-02-26T06:13:02;96775.56;;;6.30;100.00
16544;BME280;8384;47.996;7.786;2024-02-26T06:15:27;96817.19;;;6.55;100.00
16544;BME280;8384;47.996;7.786;2024-02-26T06:17:52;96829.69;;;6.51;100.00
16544;BME280;8384;47.996;7.786;2024-02-26T06:20:17;96829.44;;;6.53;100.00
16544;BME280;8384;47.996;7.786;2024-02-26T06:22:43;96840.00;;;6.54;100.00
16544;BME280;8384;47.996;7.786;2024-02-26T06:25:08;96847.91;;;6.51;100.00
16544;BME280;8384;47.996;7.786;2024-02-26T06:27:34;96821.34;;;6.42;100.00
16544;BME280;8384;47.996;7.786;2024-02-26T06:29:59;96847.75;;;6.71;100.00
16544;BME280;8384;47.996;7.786;2024-02-26T06:32:25;96850.66;;;6.80;100.00
16544;BME280;8384;47.996;7.786;2024-02-26T06:34:52;96850.38;;;6.87;100.00
16544;BME280;8384;47.996;7.786;2024-02-26T06:37:18;96836.31;;;6.74;100.00
16544;BME280;8384;47.996;7.786;2024-02-26T06:39:43;96850.81;;;6.94;100.00
16544;BME280;8384;47.996;7.786;2024-02-26T06:42:08;96850.56;;;6.96;100.00
16544;BME280;8384;47.996;7.786;2024-02-26T06:44:34;96840.59;;;6.86;100.00
16544;BME280;8384;47.996;7.786;2024-02-26T06:46:59;96855.78;;;6.87;100.00
16544;BME280;8384;47.996;7.786;2024-02-26T06:49:25;96845.75;;;6.82;100.00
16544;BME280;8384;47.996;7.786;2024-02-26T06:51:50;96843.06;;;6.82;100.00
16544;BME280;8384;47.996;7.786;2024-02-26T06:54:15;96845.72;;;6.87;100.00
16544;BME280;8384;47.996;7.786;2024-02-26T06:56:41;96854.97;;;6.86;100.00
16544;BME280;8384;47.996;7.786;2024-02-26T06:59:06;96841.53;;;7.00;100.00
16544;BME280;8384;47.996;7.786;2024-02-26T07:01:31;96841.50;;;7.05;100.00
16544;BME280;8384;47.996;7.786;2024-02-26T07:03:56;96832.22;;;7.12;100.00
16544;BME280;8384;47.996;7.786;2024-02-26T07:06:22;96823.81;;;7.08;100.00
16544;BME280;8384;47.996;7.786;2024-02-26T07:08:47;96833.63;;;7.04;100.00
16544;BME280;8384;47.996;7.786;2024-02-26T07:11:12;96830.88;;;7.09;100.00
16544;BME280;8384;47.996;7.786;2024-02-26T07:13:37;96844.97;;;7.11;100.00
16544;BME280;8384;47.996;7.786;2024-02-26T07:16:04;96848.53;;;7.12;100.00
16544;BME280;8384;47.996;7.786;2024-02-26T07:18:29;96852.03;;;7.12;100.00
16544;BME280;8384;47.996;7.786;2024-02-26T07:20:54;96865.13;;;7.05;100.00
16544;BME280;8384;47.996;7.786;2024-02-26T07:23:20;96865.06;;;7.15;100.00
16544;BME280;8384;47.996;7.786;2024-02-26T07:25:46;96856.81;;;7.26;100.00
16544;BME280;8384;47.996;7.786;2024-02-26T07:28:14;96845.44;;;7.24;100.00
16544;BME280;8384;47.996;7.786;2024-02-26T07:30:39;96857.00;;;7.34;100.00
16544;BME280;8384;47.996;7.786;2024-02-26T07:33:04;96858.91;;;7.34;100.00
16544;BME280;8384;47.996;7.786;2024-02-26T07:35:30;96833.50;;;7.19;100.00
16544;BME280;8384;47.996;7.786;2024-02-26T07:37:55;96860.44;;;7.45;100.00
16544;BME280;8384;47.996;7.786;2024-02-26T07:40:20;96852.84;;;7.42;100.00
16544;BME280;8384;47.996;7.786;2024-02-26T07:42:46;96830.53;;;7.45;100.00
16544;BME280;8384;47.996;7.786;2024-02-26T07:45:11;96835.56;;;7.57;100.00
16544;BME280;8384;47.996;7.786;2024-02-26T07:47:36;96854.34;;;7.78;100.00
16544;BME280;8384;47.996;7.786;2024-02-26T07:50:06;96838.09;;;7.73;100.00
16544;BME280;8384;47.996;7.786;2024-02-26T07:52:32;96863.91;;;8.00;100.00
16544;BME280;8384;47.996;7.786;2024-02-26T07:54:57;96875.28;;;8.02;100.00
16544;BME280;8384;47.996;7.786;2024-02-26T07:57:23;96869.13;;;7.96;100.00
16544;BME280;8384;47.996;7.786;2024-02-26T07:59:48;96856.91;;;7.93;100.00
16544;BME280;8384;47.996;7.786;2024-02-26T08:02:15;96869.59;;;8.03;100.00
16544;BME280;8384;47.996;7.786;2024-02-26T08:04:40;96839.88;;;8.07;100.00
16544;BME280;8384;47.996;7.786;2024-02-26T08:07:05;96854.09;;;8.23;100.00
16544;BME280;8384;47.996;7.786;2024-02-26T08:09:31;96823.41;;;8.17;100.00
16544;BME280;8384;47.996;7.786;2024-02-26T08:11:56;96855.00;;;8.57;100.00
16544;BME280;8384;47.996;7.786;2024-02-26T08:14:21;96857.34;;;8.82;100.00
16544;BME280;8384;47.996;7.786;2024-02-26T08:16:47;96867.06;;;8.89;98.94
16544;BME280;8384;47.996;7.786;2024-02-26T08:19:12;96866.09;;;8.98;97.37
16544;BME280;8384;47.996;7.786;2024-02-26T08:21:40;96860.16;;;9.10;96.55
16544;BME280;8384;47.996;7.786;2024-02-26T08:24:05;96881.81;;;9.21;96.63
16544;BME280;8384;47.996;7.786;2024-02-26T08:26:30;96868.91;;;9.26;95.63
16544;BME280;8384;47.996;7.786;2024-02-26T08:28:56;96871.22;;;9.33;95.79
16544;BME280;8384;47.996;7.786;2024-02-26T08:31:23;96858.19;;;9.30;93.44
16544;BME280;8384;47.996;7.786;2024-02-26T08:33:48;96824.22;;;9.08;94.18
16544;BME280;8384;47.996;7.786;2024-02-26T08:36:14;96895.91;;;9.56;93.82
16544;BME280;8384;47.996;7.786;2024-02-26T08:38:39;96885.13;;;9.51;94.14
16544;BME280;8384;47.996;7.786;2024-02-26T08:41:04;96905.44;;;9.58;92.21
16544;BME280;8384;47.996;7.786;2024-02-26T08:43:29;96916.06;;;9.74;95.42
16544;BME280;8384;47.996;7.786;2024-02-26T08:45:56;96905.38;;;9.92;95.77
16544;BME280;8384;47.996;7.786;2024-02-26T08:48:22;96905.47;;;9.72;96.54
16544;BME280;8384;47.996;7.786;2024-02-26T08:50:47;96899.03;;;9.49;100.00
16544;BME280;8384;47.996;7.786;2024-02-26T08:53:12;96905.88;;;9.66;100.00
16544;BME280;8384;47.996;7.786;2024-02-26T08:55:38;96884.38;;;9.45;100.00
16544;BME280;8384;47.996;7.786;2024-02-26T08:58:03;96907.06;;;9.59;100.00
16544;BME280;8384;47.996;7.786;2024-02-26T09:00:28;96906.78;;;9.42;100.00
16544;BME280;8384;47.996;7.786;2024-02-26T09:02:54;96915.84;;;9.23;100.00
16544;BME280;8384;47.996;7.786;2024-02-26T09:05:19;96917.84;;;9.18;100.00
16544;BME280;8384;47.996;7.786;2024-02-26T09:07:44;96903.69;;;9.15;100.00
16544;BME280;8384;47.996;7.786;2024-02-26T09:10:11;96926.31;;;9.49;100.00
16544;BME280;8384;47.996;7.786;2024-02-26T09:12:37;96921.53;;;9.27;100.00
16544;BME280;8384;47.996;7.786;2024-02-26T09:15:03;96927.28;;;9.06;100.00
16544;BME280;8384;47.996;7.786;2024-02-26T09:17:28;96928.31;;;8.53;100.00
16544;BME280;8384;47.996;7.786;2024-02-26T09:19:53;96922.97;;;8.67;100.00
16544;BME280;8384;47.996;7.786;2024-02-26T09:22:19;96906.00;;;8.26;100.00
16544;BME280;8384;47.996;7.786;2024-02-26T09:24:44;96925.53;;;8.34;100.00
16544;BME280;8384;47.996;7.786;2024-02-26T09:27:09;96915.00;;;8.70;100.00
16544;BME280;8384;47.996;7.786;2024-02-26T09:29:35;96893.50;;;8.50;100.00
16544;BME280;8384;47.996;7.786;2024-02-26T09:32:00;96879.78;;;8.36;100.00
16544;BME280;8384;47.996;7.786;2024-02-26T09:34:26;96934.72;;;8.62;100.00
16544;BME280;8384;47.996;7.786;2024-02-26T09:36:51;96936.28;;;8.88;100.00
16544;BME280;8384;47.996;7.786;2024-02-26T09:39:16;96944.38;;;9.12;100.00
16544;BME280;8384;47.996;7.786;2024-02-26T09:41:46;96922.28;;;8.94;100.00
16544;BME280;8384;47.996;7.786;2024-02-26T09:44:13;96943.75;;;9.15;100.00
16544;BME280;8384;47.996;7.786;2024-02-26T09:46:40;96956.34;;;9.30;100.00
16544;BME280;8384;47.996;7.786;2024-02-26T09:49:07;96963.31;;;9.55;100.00
16544;BME280;8384;47.996;7.786;2024-02-26T09:51:33;96959.53;;;9.84;100.00
16544;BME280;8384;47.996;7.786;2024-02-26T09:53:59;96904.75;;;9.81;100.00
16544;BME280;8384;47.996;7.786;2024-02-26T09:56:26;96928.00;;;9.78;100.00
16544;BME280;8384;47.996;7.786;2024-02-26T09:58:52;96956.44;;;9.58;100.00
16544;BME280;8384;47.996;7.786;2024-02-26T10:01:20;96950.69;;;9.59;100.00
16544;BME280;8384;47.996;7.786;2024-02-26T10:03:50;96959.03;;;9.82;100.00
16544;BME280;8384;47.996;7.786;2024-02-26T10:06:16;96980.44;;;9.75;100.00
16544;BME280;8384;47.996;7.786;2024-02-26T10:08:43;96968.63;;;9.47;100.00
16544;BME280;8384;47.996;7.786;2024-02-26T10:11:08;96951.47;;;9.93;100.00
16544;BME280;8384;47.996;7.786;2024-02-26T10:13:35;96977.56;;;10.13;100.00
16544;BME280;8384;47.996;7.786;2024-02-26T10:16:01;96956.59;;;9.95;100.00
16544;BME280;8384;47.996;7.786;2024-02-26T10:18:45;96974.22;;;10.02;100.00
16544;BME280;8384;47.996;7.786;2024-02-26T10:21:10;96999.28;;;9.90;100.00
16544;BME280;8384;47.996;7.786;2024-02-26T10:23:35;96982.41;;;10.02;100.00
16544;BME280;8384;47.996;7.786;2024-02-26T10:26:01;96985.56;;;10.38;100.00
16544;BME280;8384;47.996;7.786;2024-02-26T10:28:29;96985.28;;;10.67;100.00
16544;BME280;8384;47.996;7.786;2024-02-26T10:30:54;96964.31;;;10.76;100.00
16544;BME280;8384;47.996;7.786;2024-02-26T10:33:20;96975.97;;;11.19;100.00
16544;BME280;8384;47.996;7.786;2024-02-26T10:35:46;96976.97;;;11.46;100.00
16544;BME280;8384;47.996;7.786;2024-02-26T10:38:12;96965.13;;;11.82;98.67
16544;BME280;8384;47.996;7.786;2024-02-26T10:40:37;96940.09;;;11.97;96.37
16544;BME280;8384;47.996;7.786;2024-02-26T10:43:02;96973.19;;;12.10;90.21
16544;BME280;8384;47.996;7.786;2024-02-26T10:45:28;96973.41;;;11.68;92.65
16544;BME280;8384;47.996;7.786;2024-02-26T10:47:53;96995.69;;;11.52;95.91
16544;BME280;8384;47.996;7.786;2024-02-26T10:50:19;96974.25;;;11.46;95.03
16544;BME280;8384;47.996;7.786;2024-02-26T10:52:44;96996.25;;;11.40;97.00
16544;BME280;8384;47.996;7.786;2024-02-26T10:55:16;96990.53;;;11.51;94.72
16544;BME280;8384;47.996;7.786;2024-02-26T10:57:45;96991.84;;;11.53;94.12
16544;BME280;8384;47.996;7.786;2024-02-26T11:00:14;96994.19;;;11.69;92.79
16544;BME280;8384;47.996;7.786;2024-02-26T11:02:40;96985.97;;;11.69;91.69
16544;BME280;8384;47.996;7.786;2024-02-26T11:05:07;97001.09;;;11.44;91.33
16544;BME280;8384;47.996;7.786;2024-02-26T11:07:34;96968.50;;;11.33;90.55
16544;BME280;8384;47.996;7.786;2024-02-26T11:10:01;96978.38;;;11.66;90.07
16544;BME280;8384;47.996;7.786;2024-02-26T11:12:28;96990.31;;;11.70;90.53
16544;BME280;8384;47.996;7.786;2024-02-26T11:14:55;96992.03;;;12.03;89.37
16544;BME280;8384;47.996;7.786;2024-02-26T11:17:22;96986.25;;;12.13;88.67
16544;BME280;8384;47.996;7.786;2024-02-26T11:19:49;96962.13;;;11.92;88.64
16544;BME280;8384;47.996;7.786;2024-02-26T11:22:16;96926.50;;;11.52;90.92
16544;BME280;8384;47.996;7.786;2024-02-26T11:24:41;96975.66;;;11.89;89.98
16544;BME280;8384;47.996;7.786;2024-02-26T11:27:09;96997.66;;;12.06;88.33
16544;BME280;8384;47.996;7.786;2024-02-26T11:29:43;96998.28;;;12.35;87.99
16544;BME280;8384;47.996;7.786;2024-02-26T11:32:10;96987.66;;;12.33;88.31
16544;BME280;8384;47.996;7.786;2024-02-26T11:34:36;96987.13;;;12.22;87.47
16544;BME280;8384;47.996;7.786;2024-02-26T11:37:11;96994.34;;;12.18;91.16
16544;BME280;8384;47.996;7.786;2024-02-26T11:39:37;96994.66;;;11.94;92.69
16544;BME280;8384;47.996;7.786;2024-02-26T11:42:10;97001.59;;;11.91;89.95
16544;BME280;8384;47.996;7.786;2024-02-26T11:44:38;97000.41;;;12.06;90.36
16544;BME280;8384;47.996;7.786;2024-02-26T11:47:22;96996.59;;;12.16;90.11
16544;BME280;8384;47.996;7.786;2024-02-26T11:49:48;96995.88;;;12.42;87.69
16544;BME280;8384;47.996;7.786;2024-02-26T11:52:15;96983.41;;;12.27;87.99
16544;BME280;8384;47.996;7.786;2024-02-26T11:54:51;96992.78;;;12.35;87.11
16544;BME280;8384;47.996;7.786;2024-02-26T11:59:47;96989.22;;;12.25;85.85
16544;BME280;8384;47.996;7.786;2024-02-26T12:02:39;96996.03;;;12.37;84.82
16544;BME280;8384;47.996;7.786;2024-02-26T12:05:07;96978.31;;;12.34;84.43
16544;BME280;8384;47.996;7.786;2024-02-26T12:07:34;96976.09;;;12.54;83.01
16544;BME280;8384;47.996;7.786;2024-02-26T12:10:24;96997.13;;;12.67;82.73
16544;BME280;8384;47.996;7.786;2024-02-26T12:13:00;96995.50;;;12.66;83.84
16544;BME280;8384;47.996;7.786;2024-02-26T12:15:33;96999.66;;;12.64;81.69
16544;BME280;8384;47.996;7.786;2024-02-26T12:18:02;97005.00;;;12.69;82.10
16544;BME280;8384;47.996;7.786;2024-02-26T12:20:28;96993.56;;;12.67;81.32
16544;BME280;8384;47.996;7.786;2024-02-26T12:22:53;96985.84;;;12.86;81.00
16544;BME280;8384;47.996;7.786;2024-02-26T12:25:23;97002.84;;;13.15;78.68
16544;BME280;8384;47.996;7.786;2024-02-26T12:27:49;96999.47;;;13.18;78.88
16544;BME280;8384;47.996;7.786;2024-02-26T12:30:14;96990.22;;;12.87;79.07
16544;BME280;8384;47.996;7.786;2024-02-26T12:32:40;97013.81;;;12.48;81.29
16544;BME280;8384;47.996;7.786;2024-02-26T12:35:06;96994.19;;;12.64;80.52
16544;BME280;8384;47.996;7.786;2024-02-26T12:37:31;97001.00;;;12.75;79.38
16544;BME280;8384;47.996;7.786;2024-02-26T12:39:57;96956.75;;;12.50;78.97
16544;BME280;8384;47.996;7.786;2024-02-26T12:42:22;97001.06;;;13.10;76.25
16544;BME280;8384;47.996;7.786;2024-02-26T12:44:49;97016.56;;;13.32;75.82
16544;BME280;8384;47.996;7.786;2024-02-26T12:47:14;96986.72;;;13.57;71.97
16544;BME280;8384;47.996;7.786;2024-02-26T12:49:42;97019.00;;;13.78;71.03
16544;BME280;8384;47.996;7.786;2024-02-26T12:52:08;97015.94;;;13.53;69.75
16544;BME280;8384;47.996;7.786;2024-02-26T12:54:34;96998.25;;;14.07;65.31
16544;BME280;8384;47.996;7.786;2024-02-26T12:57:04;97009.94;;;14.51;63.73
16544;BME280;8384;47.996;7.786;2024-02-26T12:59:32;96995.28;;;14.38;62.90
16544;BME280;8384;47.996;7.786;2024-02-26T13:01:58;96991.66;;;14.55;63.08
16544;BME280;8384;47.996;7.786;2024-02-26T13:04:24;96967.66;;;14.65;62.54
16544;BME280;8384;47.996;7.786;2024-02-26T13:06:50;97014.06;;;15.05;59.55
16544;BME280;8384;47.996;7.786;2024-02-26T13:09:16;97012.44;;;15.25;59.97
16544;BME280;8384;47.996;7.786;2024-02-26T13:11:43;97010.88;;;14.94;61.35